Time;durP1;ratioP1;P1;durP2;ratioP2;P2;SDS_P1;SDS_P2;PMS_P1;PMS_P2;Temp;Humidity;BMP_temperature;BMP_pressure;BME280_temperature;BME280_humidity;BME280_pressure;Samples;Min_cycle;Max_cycle;Signal;HPM_P1;HPM_P2
2023/11/20 00:00:43;;;;;;;14.80;1.80;;;10.70;99.90;;;;;;5008371;28;20524;-68
2023/11/20 00:03:11;;;;;;;12.70;2.33;;;10.70;99.90;;;;;;5009237;28;20519;-68
2023/11/20 00:05:41;;;;;;;15.13;2.17;;;10.70;99.90;;;;;;5009090;28;20449;-69
2023/11/20 00:08:09;;;;;;;12.60;1.90;;;10.60;99.90;;;;;;5009109;28;20544;-70
2023/11/20 00:10:38;;;;;;;11.20;2.07;;;10.60;99.90;;;;;;5013541;28;20460;-69
2023/11/20 00:13:07;;;;;;;13.77;2.60;;;10.60;99.90;;;;;;5051758;28;20494;-71
2023/11/20 00:15:36;;;;;;;10.03;1.60;;;10.60;99.90;;;;;;5051070;28;20490;-72
2023/11/20 00:18:05;;;;;;;15.13;2.10;;;10.70;99.90;;;;;;5051362;28;20531;-73
2023/11/20 00:20:33;;;;;;;16.50;4.37;;;10.60;99.90;;;;;;5051389;28;20823;-69
2023/11/20 00:23:03;;;;;;;11.50;1.70;;;10.70;99.90;;;;;;5051619;28;20852;-69
2023/11/20 00:25:31;;;;;;;12.77;3.53;;;10.70;99.90;;;;;;5051180;28;20895;-72
2023/11/20 00:27:59;;;;;;;13.27;2.00;;;10.60;99.90;;;;;;5059218;28;20542;-70
2023/11/20 00:30:27;;;;;;;11.10;1.70;;;10.70;99.90;;;;;;5051169;28;20469;-70
2023/11/20 00:32:56;;;;;;;13.33;3.30;;;10.60;99.90;;;;;;5050822;28;20489;-72
2023/11/20 00:35:24;;;;;;;12.40;2.37;;;10.60;99.90;;;;;;5050854;28;20544;-70
2023/11/20 00:37:52;;;;;;;12.60;2.67;;;10.60;99.90;;;;;;5050837;28;20452;-69
2023/11/20 00:40:22;;;;;;;10.97;2.00;;;10.60;99.90;;;;;;5051062;28;20446;-69
2023/11/20 00:42:50;;;;;;;14.70;3.40;;;10.60;99.90;;;;;;5050822;28;20439;-71
2023/11/20 00:45:18;;;;;;;11.97;2.20;;;10.60;99.90;;;;;;5050604;28;20454;-71
2023/11/20 00:47:46;;;;;;;13.47;2.27;;;10.60;99.90;;;;;;5050623;28;20451;-70
2023/11/20 00:50:14;;;;;;;14.93;2.63;;;10.60;99.90;;;;;;5050815;28;20447;-71
2023/11/20 00:52:42;;;;;;;13.20;1.80;;;10.50;99.90;;;;;;5050700;28;20672;-70
2023/11/20 00:55:10;;;;;;;12.00;1.97;;;10.40;99.90;;;;;;5050486;28;20471;-70
2023/11/20 00:57:41;;;;;;;11.87;2.13;;;10.50;99.90;;;;;;5050206;28;20948;-69
2023/11/20 01:00:11;;;;;;;15.10;2.67;;;10.50;99.90;;;;;;5050394;28;20987;-69
2023/11/20 01:02:40;;;;;;;15.83;2.60;;;10.40;99.90;;;;;;5050681;28;20465;-69
2023/11/20 01:05:09;;;;;;;9.37;1.87;;;10.30;99.90;;;;;;5050005;28;20451;-71
2023/11/20 01:07:37;;;;;;;10.70;2.00;;;10.30;99.90;;;;;;5049836;28;20451;-71
2023/11/20 01:10:06;;;;;;;11.80;2.10;;;10.30;99.90;;;;;;5050521;28;20962;-71
2023/11/20 01:12:34;;;;;;;10.90;1.90;;;10.20;99.90;;;;;;5050586;28;20523;-70
2023/11/20 01:15:05;;;;;;;13.83;2.17;;;10.20;99.90;;;;;;5050540;28;20506;-70
2023/11/20 01:17:35;;;;;;;11.30;1.83;;;10.10;99.90;;;;;;5050427;28;20436;-69
2023/11/20 01:20:04;;;;;;;11.77;1.47;;;10.00;99.90;;;;;;5048970;28;20553;-70
2023/11/20 01:22:32;;;;;;;14.43;2.33;;;9.90;99.90;;;;;;5050014;28;20509;-74
2023/11/20 01:25:00;;;;;;;11.00;2.00;;;9.90;99.90;;;;;;5049950;28;20476;-70
2023/11/20 01:27:28;;;;;;;12.63;1.67;;;9.90;99.90;;;;;;5049947;28;20870;-68
2023/11/20 01:29:57;;;;;;;17.60;2.10;;;9.90;99.90;;;;;;5050259;28;20486;-70
2023/11/20 01:32:26;;;;;;;14.33;2.30;;;9.90;99.90;;;;;;5050312;28;20440;-70
2023/11/20 01:34:54;;;;;;;11.50;1.40;;;9.90;99.90;;;;;;5044449;28;21103;-69
2023/11/20 01:37:22;;;;;;;12.60;2.30;;;9.90;99.90;;;;;;5050104;28;20455;-69
2023/11/20 01:39:50;;;;;;;11.33;1.77;;;10.00;99.90;;;;;;5049891;28;20464;-67
2023/11/20 01:42:19;;;;;;;13.43;1.97;;;10.00;99.90;;;;;;5050192;28;20455;-69
2023/11/20 01:44:47;;;;;;;10.53;1.83;;;10.10;99.90;;;;;;5049550;28;20456;-70
2023/11/20 01:47:15;;;;;;;11.30;2.13;;;10.10;99.90;;;;;;5048820;28;20479;-69
2023/11/20 01:49:44;;;;;;;13.63;2.23;;;10.10;99.90;;;;;;5048961;28;20523;-70
2023/11/20 01:52:12;;;;;;;17.90;3.20;;;10.20;99.90;;;;;;5049188;28;20479;-71
2023/11/20 01:54:40;;;;;;;11.47;2.17;;;10.20;99.90;;;;;;5048900;28;20547;-69
2023/11/20 01:57:10;;;;;;;15.00;2.87;;;10.30;99.90;;;;;;5048849;28;20489;-68
2023/11/20 01:59:39;;;;;;;13.93;2.67;;;10.30;99.90;;;;;;5049406;28;20566;-70
2023/11/20 02:02:07;;;;;;;13.63;2.37;;;10.30;99.90;;;;;;5049809;28;20545;-71
2023/11/20 02:04:36;;;;;;;10.70;2.27;;;10.30;99.90;;;;;;5048775;28;20445;-68
2023/11/20 02:07:08;;;;;;;13.40;3.77;;;10.50;99.90;;;;;;5049134;28;20452;-69
2023/11/20 02:09:36;;;;;;;15.77;2.10;;;10.40;99.90;;;;;;5049494;28;20492;-70
2023/11/20 02:12:06;;;;;;;14.20;2.33;;;10.40;99.90;;;;;;5049331;28;20448;-73
2023/11/20 02:14:34;;;;;;;9.70;2.00;;;10.30;99.90;;;;;;5048675;28;20999;-72
2023/11/20 02:17:03;;;;;;;15.77;2.10;;;10.30;99.90;;;;;;5045995;28;20457;-72
2023/11/20 02:19:31;;;;;;;13.80;3.60;;;10.30;99.90;;;;;;5046874;28;20571;-69
2023/11/20 02:21:58;;;;;;;11.67;1.80;;;10.30;99.90;;;;;;5040664;28;20515;-72
2023/11/20 02:24:28;;;;;;;11.03;1.90;;;10.30;99.90;;;;;;5048716;28;20543;-70
2023/11/20 02:27:08;;;;;;;10.77;2.10;;;10.30;99.90;;;;;;5048399;28;20458;-67
2023/11/20 02:29:53;;;;;;;11.70;1.70;;;10.40;99.90;;;;;;5048701;28;20502;-68
2023/11/20 02:32:21;;;;;;;11.07;2.00;;;10.30;99.90;;;;;;5048738;28;20440;-68
2023/11/20 02:34:51;;;;;;;11.47;2.57;;;10.30;99.90;;;;;;5047841;28;20482;-68
2023/11/20 02:37:19;;;;;;;9.07;1.80;;;10.30;99.90;;;;;;5048335;28;20475;-70
2023/11/20 02:39:49;;;;;;;17.43;3.00;;;10.30;99.90;;;;;;5048590;28;20471;-68
2023/11/20 02:42:17;;;;;;;15.60;5.37;;;10.30;99.90;;;;;;5042788;28;20485;-68
2023/11/20 02:44:46;;;;;;;12.50;1.83;;;10.30;99.90;;;;;;5048295;28;20542;-68
2023/11/20 02:47:15;;;;;;;16.60;2.50;;;10.20;99.90;;;;;;5044822;28;20883;-68
2023/11/20 02:49:43;;;;;;;12.77;2.60;;;10.30;99.90;;;;;;5046781;28;20981;-69
2023/11/20 02:52:11;;;;;;;11.97;2.13;;;10.40;99.90;;;;;;5047539;28;20448;-69
2023/11/20 02:54:39;;;;;;;14.10;2.10;;;10.40;99.90;;;;;;5047592;28;20521;-69
2023/11/20 02:57:07;;;;;;;10.97;2.30;;;10.40;99.90;;;;;;5048505;28;20464;-69
2023/11/20 02:59:35;;;;;;;14.67;2.07;;;10.40;99.90;;;;;;5047922;28;20548;-69
2023/11/20 03:02:03;;;;;;;13.13;1.93;;;10.50;99.90;;;;;;5047553;28;20474;-68
2023/11/20 03:04:32;;;;;;;10.87;2.90;;;10.50;99.90;;;;;;5047845;28;20441;-68
2023/11/20 03:07:00;;;;;;;11.70;2.40;;;10.50;99.90;;;;;;5047628;28;20454;-70
2023/11/20 03:09:28;;;;;;;15.30;1.90;;;10.50;99.90;;;;;;5048506;28;20488;-69
2023/11/20 03:11:56;;;;;;;14.83;2.80;;;10.40;99.90;;;;;;5048340;28;20458;-69
2023/11/20 03:14:24;;;;;;;12.57;2.37;;;10.40;99.90;;;;;;5048465;28;20488;-72
2023/11/20 03:16:52;;;;;;;9.90;1.80;;;10.30;99.90;;;;;;5048689;28;20487;-69
2023/11/20 03:19:20;;;;;;;11.10;2.40;;;10.30;99.90;;;;;;5048813;28;20471;-69
2023/11/20 03:21:49;;;;;;;13.63;2.53;;;10.40;99.90;;;;;;5048860;28;20452;-68
2023/11/20 03:24:17;;;;;;;13.13;2.33;;;10.50;99.90;;;;;;5048893;28;20452;-68
2023/11/20 03:26:45;;;;;;;9.60;1.77;;;10.60;99.90;;;;;;5049135;28;20451;-68
2023/11/20 03:29:13;;;;;;;10.50;1.50;;;10.70;99.90;;;;;;5048585;28;20474;-69
2023/11/20 03:31:41;;;;;;;12.33;1.67;;;10.80;99.90;;;;;;5048269;28;20998;-68
2023/11/20 03:34:09;;;;;;;11.20;2.53;;;10.90;99.90;;;;;;5049636;28;20491;-70
2023/11/20 03:36:37;;;;;;;9.73;1.90;;;10.90;99.90;;;;;;5052001;28;21238;-69
2023/11/20 03:39:07;;;;;;;10.70;2.10;;;11.00;99.90;;;;;;5051718;28;20982;-72
2023/11/20 03:41:35;;;;;;;12.27;1.97;;;11.00;99.90;;;;;;5051793;28;20444;-68
2023/11/20 03:44:03;;;;;;;9.13;1.77;;;11.10;99.90;;;;;;5051702;28;20450;-70
2023/11/20 03:46:31;;;;;;;13.47;1.93;;;11.10;99.90;;;;;;5052025;28;20451;-71
2023/11/20 03:49:01;;;;;;;14.20;2.27;;;11.10;99.90;;;;;;5051719;28;20473;-71
2023/11/20 03:51:29;;;;;;;11.20;2.63;;;11.10;99.90;;;;;;5052117;28;20904;-69
2023/11/20 03:53:56;;;;;;;10.60;1.90;;;11.20;99.90;;;;;;5051387;28;20665;-69
2023/11/20 03:56:26;;;;;;;10.00;1.70;;;11.20;99.90;;;;;;5046041;28;20472;-69
2023/11/20 03:58:54;;;;;;;13.60;3.07;;;11.20;99.90;;;;;;5051303;28;21005;-68
2023/11/20 04:01:22;;;;;;;9.30;1.50;;;11.20;99.90;;;;;;5051487;28;20525;-69
2023/11/20 04:03:49;;;;;;;12.17;1.60;;;11.20;99.90;;;;;;5051183;28;20453;-68
2023/11/20 04:06:17;;;;;;;9.80;2.00;;;11.10;99.90;;;;;;5051513;28;20976;-70
2023/11/20 04:08:45;;;;;;;16.97;3.90;;;11.20;99.90;;;;;;5050848;28;20464;-71
2023/11/20 04:11:13;;;;;;;10.43;1.67;;;11.20;99.90;;;;;;5051038;28;20472;-71
2023/11/20 04:13:42;;;;;;;11.07;1.90;;;11.20;99.90;;;;;;5050753;28;20468;-71
2023/11/20 04:16:11;;;;;;;8.73;1.90;;;11.10;99.90;;;;;;5051043;28;20554;-69
2023/11/20 04:18:39;;;;;;;14.10;2.50;;;11.10;99.90;;;;;;5050969;28;20962;-68
2023/11/20 04:21:08;;;;;;;10.00;1.83;;;11.00;99.90;;;;;;5051131;28;21025;-71
2023/11/20 04:23:36;;;;;;;13.60;1.97;;;11.10;99.90;;;;;;5051009;28;20530;-71
2023/11/20 04:26:04;;;;;;;12.73;1.67;;;11.10;99.90;;;;;;5051096;28;20468;-71
2023/11/20 04:28:32;;;;;;;11.73;2.20;;;11.10;99.90;;;;;;5052065;28;20473;-69
2023/11/20 04:31:02;;;;;;;13.13;1.93;;;11.10;99.90;;;;;;5042674;28;20533;-69
2023/11/20 04:33:30;;;;;;;12.60;1.70;;;11.10;99.90;;;;;;5050880;28;20453;-72
2023/11/20 04:36:01;;;;;;;11.50;2.07;;;11.10;99.90;;;;;;5050642;28;20488;-70
2023/11/20 04:38:30;;;;;;;11.27;1.60;;;11.10;99.90;;;;;;5050452;28;20495;-69
2023/11/20 04:40:58;;;;;;;9.50;1.50;;;11.20;99.90;;;;;;5050646;28;20475;-69
2023/11/20 04:43:26;;;;;;;11.17;2.20;;;11.20;99.90;;;;;;5049991;28;21064;-71
2023/11/20 04:45:54;;;;;;;10.80;1.90;;;11.20;99.90;;;;;;5049895;28;20534;-69
2023/11/20 04:48:23;;;;;;;10.27;1.50;;;11.20;99.90;;;;;;5050727;28;21311;-68
2023/11/20 04:50:52;;;;;;;13.00;1.80;;;11.30;99.90;;;;;;5050202;28;20478;-70
2023/11/20 04:53:20;;;;;;;12.60;1.87;;;11.30;99.90;;;;;;5050350;28;20466;-71
2023/11/20 04:55:48;;;;;;;11.60;2.23;;;11.20;99.90;;;;;;5050273;28;20573;-70
2023/11/20 04:58:21;;;;;;;11.90;2.07;;;11.20;99.90;;;;;;5050516;28;20474;-71
2023/11/20 05:00:50;;;;;;;10.87;2.13;;;11.10;99.90;;;;;;5051479;28;20446;-68
2023/11/20 05:03:19;;;;;;;9.07;1.63;;;11.00;99.90;;;;;;5044822;28;20500;-69
2023/11/20 05:05:48;;;;;;;12.87;1.90;;;11.00;99.90;;;;;;5050026;28;20467;-70
2023/11/20 05:08:16;;;;;;;9.77;2.20;;;10.90;99.90;;;;;;5049675;28;20477;-69
2023/11/20 05:10:45;;;;;;;15.90;2.00;;;10.80;99.90;;;;;;5049966;28;20874;-70
2023/11/20 05:13:16;;;;;;;9.60;1.67;;;10.70;99.90;;;;;;5050358;28;20443;-70
2023/11/20 05:15:45;;;;;;;10.60;2.13;;;10.70;99.90;;;;;;5048841;28;20487;-71
2023/11/20 05:18:15;;;;;;;9.10;1.97;;;10.60;99.90;;;;;;5050172;28;20512;-71
2023/11/20 05:20:42;;;;;;;11.13;1.80;;;10.70;99.90;;;;;;5050318;28;20541;-70
2023/11/20 05:23:12;;;;;;;8.57;1.50;;;10.70;99.90;;;;;;5050321;28;20865;-72
2023/11/20 05:25:40;;;;;;;13.63;1.87;;;10.60;99.90;;;;;;5049797;28;20448;-70
2023/11/20 05:28:09;;;;;;;8.57;1.60;;;10.70;99.90;;;;;;5049882;28;20448;-73
2023/11/20 05:30:38;;;;;;;15.10;2.70;;;10.70;99.90;;;;;;5050084;28;20898;-73
2023/11/20 05:33:06;;;;;;;9.70;1.47;;;10.70;99.90;;;;;;5050028;28;20990;-68
2023/11/20 05:35:34;;;;;;;10.87;2.23;;;10.70;99.90;;;;;;5049873;28;20487;-72
2023/11/20 05:38:02;;;;;;;7.70;1.37;;;10.60;99.90;;;;;;5050117;28;20448;-72
2023/11/20 05:40:31;;;;;;;10.93;2.13;;;10.60;99.90;;;;;;5050051;28;20849;-68
2023/11/20 05:42:59;;;;;;;10.03;1.73;;;10.50;99.90;;;;;;5050161;28;20444;-70
2023/11/20 05:45:28;;;;;;;14.33;2.03;;;10.50;99.90;;;;;;5049264;28;20476;-68
2023/11/20 05:47:56;;;;;;;12.60;1.90;;;10.50;99.90;;;;;;5050183;28;20453;-69
2023/11/20 05:50:24;;;;;;;12.77;2.40;;;10.50;99.90;;;;;;5057630;28;20505;-70
2023/11/20 05:52:52;;;;;;;11.30;1.60;;;10.40;99.90;;;;;;5050979;28;20505;-68
2023/11/20 05:55:20;;;;;;;9.00;1.80;;;10.40;99.90;;;;;;5048782;28;20615;-67
2023/11/20 05:57:51;;;;;;;12.10;2.17;;;10.40;99.90;;;;;;5047476;28;20474;-68
2023/11/20 06:00:20;;;;;;;11.50;1.97;;;10.50;99.90;;;;;;5048720;28;20455;-71
2023/11/20 06:02:48;;;;;;;10.13;2.03;;;10.60;99.90;;;;;;5049741;28;20972;-69
2023/11/20 06:05:16;;;;;;;12.30;2.00;;;10.60;99.90;;;;;;5049540;28;20483;-69
2023/11/20 06:07:44;;;;;;;8.70;1.53;;;10.80;99.90;;;;;;5049219;28;20451;-68
2023/11/20 06:10:12;;;;;;;15.87;2.40;;;10.80;99.90;;;;;;5049442;28;20500;-71
2023/11/20 06:12:40;;;;;;;9.43;1.60;;;10.80;99.90;;;;;;5049311;28;20457;-73
2023/11/20 06:15:10;;;;;;;13.00;2.10;;;10.80;99.90;;;;;;5039061;28;20497;-69
2023/11/20 06:17:38;;;;;;;10.23;1.60;;;10.90;99.90;;;;;;5048514;28;20437;-71
2023/11/20 06:20:09;;;;;;;9.47;1.60;;;11.00;99.90;;;;;;5045428;28;20475;-69
2023/11/20 06:22:37;;;;;;;12.07;2.00;;;11.00;99.90;;;;;;5040518;28;20436;-69
2023/11/20 06:25:06;;;;;;;12.87;2.00;;;11.10;99.90;;;;;;5038521;28;20523;-73
2023/11/20 06:27:34;;;;;;;8.10;2.23;;;11.10;99.90;;;;;;5039637;28;20456;-71
2023/11/20 06:30:02;;;;;;;9.50;1.73;;;11.10;99.90;;;;;;5042452;28;20458;-70
2023/11/20 06:32:31;;;;;;;8.03;1.70;;;11.10;99.90;;;;;;5041826;28;20488;-71
2023/11/20 06:34:59;;;;;;;16.60;2.10;;;11.20;99.90;;;;;;5039676;28;20444;-73
2023/11/20 06:37:28;;;;;;;11.60;1.93;;;11.20;99.90;;;;;;5035535;28;20513;-74
2023/11/20 06:39:56;;;;;;;8.70;1.90;;;11.10;99.90;;;;;;5039041;28;21032;-71
2023/11/20 06:42:24;;;;;;;11.37;2.00;;;11.20;99.90;;;;;;5040724;28;20448;-74
2023/11/20 06:44:54;;;;;;;10.30;1.67;;;11.20;99.90;;;;;;5048116;28;20998;-74
2023/11/20 06:47:22;;;;;;;9.47;1.50;;;11.20;99.90;;;;;;5043123;28;20554;-72
2023/11/20 06:49:52;;;;;;;8.80;1.67;;;11.20;99.90;;;;;;5042827;28;20468;-74
2023/11/20 06:52:20;;;;;;;10.63;1.77;;;11.20;99.90;;;;;;5043072;28;20440;-68
2023/11/20 06:54:48;;;;;;;15.73;1.77;;;11.30;99.90;;;;;;5047403;28;20465;-69
2023/11/20 06:57:16;;;;;;;13.20;1.90;;;11.20;99.90;;;;;;5048944;28;20483;-68
2023/11/20 06:59:45;;;;;;;11.13;1.93;;;11.30;99.90;;;;;;5043198;28;20522;-69
2023/11/20 07:02:14;;;;;;;12.23;1.53;;;11.30;99.90;;;;;;5055604;28;20449;-67
2023/11/20 07:04:44;;;;;;;10.17;1.70;;;11.30;99.90;;;;;;5046528;28;20463;-69
2023/11/20 07:07:15;;;;;;;11.80;2.03;;;11.30;99.90;;;;;;5048552;28;20859;-72
2023/11/20 07:09:44;;;;;;;8.30;1.60;;;11.30;99.90;;;;;;5052660;28;20486;-68
2023/11/20 07:12:12;;;;;;;12.67;2.13;;;11.40;99.90;;;;;;5058097;28;20449;-72
2023/11/20 07:14:40;;;;;;;13.10;1.40;;;11.40;99.90;;;;;;5048288;28;20450;-69
2023/11/20 07:17:08;;;;;;;13.13;2.83;;;11.50;99.90;;;;;;5048139;28;20523;-69
2023/11/20 07:19:36;;;;;;;10.90;1.50;;;11.40;99.90;;;;;;5048977;28;20842;-69
2023/11/20 07:22:04;;;;;;;11.83;1.90;;;11.40;99.90;;;;;;5049054;28;20447;-70
2023/11/20 07:24:34;;;;;;;12.47;1.60;;;11.40;99.90;;;;;;5048831;28;20541;-70
2023/11/20 07:27:02;;;;;;;11.53;1.50;;;11.50;99.90;;;;;;5048471;28;20482;-69
2023/11/20 07:29:30;;;;;;;11.50;2.17;;;11.50;99.90;;;;;;5048649;28;20479;-68
2023/11/20 07:31:58;;;;;;;12.67;1.60;;;11.60;99.90;;;;;;5041785;28;20794;-69
2023/11/20 07:34:26;;;;;;;12.93;2.60;;;11.60;99.90;;;;;;5043917;28;20452;-68
2023/11/20 07:36:57;;;;;;;14.50;1.77;;;11.70;99.90;;;;;;5048043;28;20854;-69
2023/11/20 07:39:26;;;;;;;11.03;1.63;;;11.60;99.90;;;;;;5048436;28;20519;-68
2023/11/20 07:41:56;;;;;;;12.63;2.20;;;11.70;99.90;;;;;;5048390;28;20458;-69
2023/11/20 07:44:24;;;;;;;9.07;1.80;;;11.70;99.90;;;;;;5048080;28;20466;-70
2023/11/20 07:46:52;;;;;;;10.67;2.13;;;11.70;99.90;;;;;;5048204;28;20545;-72
2023/11/20 07:49:20;;;;;;;14.07;1.90;;;11.80;99.90;;;;;;5048001;28;20551;-69
2023/11/20 07:51:50;;;;;;;9.17;1.50;;;11.90;99.90;;;;;;5048554;28;20812;-70
2023/11/20 07:54:18;;;;;;;11.50;1.60;;;11.90;99.90;;;;;;5047957;28;20842;-68
2023/11/20 07:56:46;;;;;;;8.00;1.50;;;12.00;99.90;;;;;;5047936;28;20486;-71
2023/11/20 07:59:15;;;;;;;10.20;1.83;;;12.00;99.90;;;;;;5048050;28;20531;-70
2023/11/20 08:01:43;;;;;;;9.13;1.30;;;12.00;99.90;;;;;;5048488;28;20480;-68
2023/11/20 08:04:16;;;;;;;10.23;1.73;;;12.00;99.90;;;;;;5048197;28;20453;-68
2023/11/20 08:06:45;;;;;;;11.10;1.50;;;12.00;99.90;;;;;;5048776;28;20458;-67
2023/11/20 08:09:13;;;;;;;13.20;2.00;;;12.00;99.90;;;;;;5048739;28;20492;-70
2023/11/20 08:11:41;;;;;;;8.83;1.77;;;11.90;99.90;;;;;;5049143;28;20456;-70
2023/11/20 08:14:09;;;;;;;14.70;3.83;;;11.80;99.90;;;;;;5048405;28;20448;-69
2023/11/20 08:16:38;;;;;;;9.30;1.77;;;11.90;99.90;;;;;;5050258;28;20487;-71
2023/11/20 08:19:06;;;;;;;13.93;3.20;;;11.80;99.90;;;;;;5048854;28;20485;-73
2023/11/20 08:21:35;;;;;;;8.63;1.30;;;11.80;99.90;;;;;;5051590;28;21143;-69
2023/11/20 08:24:03;;;;;;;9.27;1.50;;;11.90;99.90;;;;;;5051003;28;20451;-70
2023/11/20 08:26:31;;;;;;;13.00;1.53;;;11.90;99.90;;;;;;5051659;28;20576;-69
2023/11/20 08:28:59;;;;;;;8.93;1.50;;;12.00;99.90;;;;;;5051305;28;20524;-70
2023/11/20 08:31:27;;;;;;;11.67;1.40;;;12.00;99.90;;;;;;5051531;28;20538;-69
2023/11/20 08:33:57;;;;;;;9.17;1.37;;;12.00;99.90;;;;;;5050740;28;20456;-67
2023/11/20 08:36:25;;;;;;;9.23;1.40;;;12.10;99.90;;;;;;5051293;28;20456;-67
2023/11/20 08:38:53;;;;;;;10.83;1.63;;;12.10;99.90;;;;;;5051255;28;20887;-69
2023/11/20 08:41:22;;;;;;;10.27;1.43;;;12.10;99.90;;;;;;5051565;28;21015;-67
2023/11/20 08:43:50;;;;;;;10.83;1.60;;;12.10;99.90;;;;;;5051064;28;20569;-67
2023/11/20 08:46:18;;;;;;;12.60;2.40;;;12.00;99.90;;;;;;5050969;28;20802;-67
2023/11/20 08:48:46;;;;;;;8.60;1.40;;;12.10;99.90;;;;;;5050708;28;20505;-70
2023/11/20 08:51:16;;;;;;;14.40;2.10;;;12.10;99.90;;;;;;5051175;28;20518;-71
2023/11/20 08:53:45;;;;;;;12.13;1.80;;;12.00;99.90;;;;;;5050900;28;20449;-70
2023/11/20 08:56:13;;;;;;;9.20;1.43;;;12.00;99.90;;;;;;5050960;28;20458;-68
2023/11/20 08:58:41;;;;;;;12.63;2.00;;;12.00;99.90;;;;;;5050498;28;20486;-66
2023/11/20 09:01:09;;;;;;;8.17;1.73;;;12.00;99.90;;;;;;5050433;28;20446;-67
2023/11/20 09:03:37;;;;;;;8.80;1.40;;;12.10;99.90;;;;;;5049530;28;20956;-68
2023/11/20 09:06:05;;;;;;;9.57;1.80;;;12.20;99.90;;;;;;5049287;28;20449;-67
2023/11/20 09:08:35;;;;;;;8.93;1.17;;;12.40;99.90;;;;;;5049364;28;20474;-70
2023/11/20 09:11:03;;;;;;;11.80;1.87;;;12.70;99.90;;;;;;5049859;28;20561;-68
2023/11/20 09:13:32;;;;;;;12.47;1.70;;;12.80;99.90;;;;;;5049257;28;20960;-68
2023/11/20 09:16:00;;;;;;;9.40;1.43;;;12.90;99.90;;;;;;5049000;28;20524;-68
2023/11/20 09:18:28;;;;;;;8.50;1.80;;;13.10;99.90;;;;;;5048812;28;20494;-69
2023/11/20 09:21:01;;;;;;;12.37;1.90;;;13.10;99.90;;;;;;5049201;28;20532;-70
2023/11/20 09:23:29;;;;;;;10.63;1.77;;;12.90;99.90;;;;;;5049294;28;21313;-71
2023/11/20 09:25:58;;;;;;;8.50;1.90;;;12.80;99.90;;;;;;5048880;28;20455;-71
2023/11/20 09:28:26;;;;;;;9.30;1.57;;;13.00;99.90;;;;;;5048686;28;20502;-70
2023/11/20 09:30:54;;;;;;;12.47;1.60;;;13.30;99.90;;;;;;5050214;28;20515;-69
2023/11/20 09:33:22;;;;;;;8.83;1.83;;;13.50;99.90;;;;;;5050840;28;20480;-70
2023/11/20 09:35:50;;;;;;;14.27;3.80;;;13.50;99.90;;;;;;5049537;28;20904;-70
2023/11/20 09:38:18;;;;;;;11.00;2.00;;;13.50;99.90;;;;;;5049656;28;20488;-69
2023/11/20 09:40:46;;;;;;;11.30;1.80;;;13.30;99.90;;;;;;5049906;28;20466;-69
2023/11/20 09:43:18;;;;;;;12.77;1.80;;;13.40;99.90;;;;;;5049925;28;20452;-69
2023/11/20 09:45:48;;;;;;;10.20;1.57;;;13.60;99.90;;;;;;5049237;28;20475;-69
2023/11/20 09:48:25;;;;;;;12.30;1.50;;;13.80;99.90;;;;;;5049624;28;20488;-72
2023/11/20 09:50:55;;;;;;;8.07;1.83;;;14.10;99.90;;;;;;5049945;28;20444;-70
2023/11/20 09:53:40;;;;;;;9.13;1.60;;;13.80;99.90;;;;;;5049672;28;20451;-69
2023/11/20 09:56:09;;;;;;;11.47;1.97;;;13.50;99.90;;;;;;5049531;28;20458;-69
2023/11/20 09:58:41;;;;;;;7.40;1.17;;;13.50;99.90;;;;;;5049307;28;20522;-70
2023/11/20 10:01:12;;;;;;;11.40;1.30;;;13.40;99.90;;;;;;5049561;28;20449;-71
2023/11/20 10:03:41;;;;;;;8.30;1.33;;;13.10;99.90;;;;;;5049228;28;20454;-69
2023/11/20 10:06:12;;;;;;;9.33;1.30;;;12.80;99.90;;;;;;5049493;28;20480;-72
2023/11/20 10:08:42;;;;;;;9.50;1.80;;;12.70;99.90;;;;;;5049429;28;20461;-71
2023/11/20 10:11:12;;;;;;;7.60;1.30;;;12.40;99.90;;;;;;5049448;28;20435;-69
2023/11/20 10:13:42;;;;;;;10.57;1.90;;;12.20;99.90;;;;;;5048984;28;20444;-69
2023/11/20 10:16:17;;;;;;;8.27;1.23;;;11.90;99.90;;;;;;5049209;28;20533;-71
2023/11/20 10:18:46;;;;;;;9.00;1.47;;;12.10;99.90;;;;;;5049178;28;20496;-69
2023/11/20 10:21:14;;;;;;;16.67;1.70;;;12.50;99.90;;;;;;5049530;28;20449;-71
2023/11/20 10:23:42;;;;;;;11.07;2.03;;;12.80;99.90;;;;;;5048979;28;20709;-71
2023/11/20 10:26:10;;;;;;;8.47;1.60;;;13.00;99.90;;;;;;5049236;28;20451;-72
2023/11/20 10:28:39;;;;;;;9.20;1.50;;;12.80;99.90;;;;;;5057295;28;20462;-72
2023/11/20 10:31:10;;;;;;;12.90;2.17;;;12.70;99.90;;;;;;5049363;28;20528;-70
2023/11/20 10:33:38;;;;;;;11.43;1.50;;;12.80;99.90;;;;;;5049241;28;20544;-73
2023/11/20 10:36:17;;;;;;;8.07;1.40;;;12.90;99.90;;;;;;5049663;28;20447;-71
2023/11/20 10:38:45;;;;;;;9.63;1.53;;;13.40;99.90;;;;;;5048834;28;20486;-74
2023/11/20 10:41:13;;;;;;;9.13;1.70;;;13.90;99.90;;;;;;5048854;28;20937;-73
2023/11/20 10:43:42;;;;;;;10.50;2.30;;;14.10;99.90;;;;;;5048410;28;20444;-70
2023/11/20 10:46:11;;;;;;;6.97;0.97;;;14.00;99.90;;;;;;5048878;28;20455;-70
2023/11/20 10:48:39;;;;;;;8.87;1.20;;;13.60;99.90;;;;;;5048507;28;20471;-72
2023/11/20 10:51:09;;;;;;;9.13;1.20;;;13.40;99.90;;;;;;5048659;28;20459;-70
2023/11/20 10:53:39;;;;;;;12.23;1.97;;;12.90;99.90;;;;;;5048643;28;20450;-70
2023/11/20 10:56:09;;;;;;;7.80;1.57;;;12.10;99.90;;;;;;5048971;28;20455;-71
2023/11/20 10:58:39;;;;;;;10.37;1.20;;;11.60;99.90;;;;;;5049395;28;20508;-71
2023/11/20 11:01:08;;;;;;;8.23;1.27;;;11.40;99.90;;;;;;5049130;28;20832;-69
2023/11/20 11:03:40;;;;;;;13.63;1.70;;;11.10;99.90;;;;;;5048886;28;20455;-69
2023/11/20 11:06:10;;;;;;;7.90;1.33;;;11.00;99.90;;;;;;5049009;28;20440;-70
2023/11/20 11:08:44;;;;;;;10.17;2.40;;;10.80;99.90;;;;;;5048952;28;20469;-70
2023/11/20 11:11:14;;;;;;;11.80;1.37;;;10.90;99.90;;;;;;5049269;28;20452;-69
2023/11/20 11:13:44;;;;;;;8.57;1.27;;;11.00;99.90;;;;;;5048287;28;20466;-70
2023/11/20 11:16:22;;;;;;;12.43;2.27;;;11.20;99.90;;;;;;5049004;28;20451;-70
2023/11/20 11:19:01;;;;;;;10.13;1.60;;;11.50;99.90;;;;;;5048367;28;20499;-69
2023/11/20 11:21:38;;;;;;;10.03;1.53;;;11.90;99.90;;;;;;5049288;28;20491;-69
2023/11/20 11:24:11;;;;;;;13.57;1.47;;;12.20;99.90;;;;;;5048364;28;20840;-70
2023/11/20 11:26:48;;;;;;;7.53;1.30;;;12.30;99.90;;;;;;5049119;28;20472;-69
2023/11/20 11:29:23;;;;;;;8.90;1.10;;;12.30;99.90;;;;;;5047935;28;20515;-71
2023/11/20 11:32:18;;;;;;;9.43;1.33;;;12.40;99.90;;;;;;5048235;28;20974;-68
2023/11/20 11:35:07;;;;;;;8.80;1.10;;;12.50;99.90;;;;;;5047967;28;20812;-71
2023/11/20 11:37:44;;;;;;;8.27;1.20;;;12.30;99.90;;;;;;5048454;28;20454;-69
2023/11/20 11:40:21;;;;;;;10.17;1.03;;;12.30;99.90;;;;;;5048269;28;20494;-68
2023/11/20 11:42:54;;;;;;;10.17;1.30;;;12.30;99.90;;;;;;5048223;28;20442;-72
2023/11/20 11:45:25;;;;;;;8.37;1.67;;;12.20;99.90;;;;;;5048005;28;21135;-73
2023/11/20 11:47:53;;;;;;;9.00;1.20;;;12.20;99.90;;;;;;5047661;28;21061;-68
2023/11/20 11:50:23;;;;;;;11.70;1.67;;;12.30;99.90;;;;;;5048247;28;20453;-70
2023/11/20 11:52:51;;;;;;;7.60;1.00;;;12.40;99.90;;;;;;5047895;28;20457;-70
2023/11/20 11:55:21;;;;;;;9.10;1.50;;;12.60;99.90;;;;;;5050442;28;20539;-69
2023/11/20 11:57:53;;;;;;;7.30;1.30;;;12.90;99.90;;;;;;5051779;28;20519;-70
2023/11/20 12:00:22;;;;;;;9.87;1.60;;;13.20;99.90;;;;;;5051525;28;20494;-70
2023/11/20 12:02:57;;;;;;;9.70;1.20;;;13.60;99.90;;;;;;5051794;28;20471;-69
2023/11/20 12:05:26;;;;;;;9.73;1.00;;;14.00;99.90;;;;;;5052028;28;20547;-71
2023/11/20 12:07:58;;;;;;;8.57;1.20;;;14.20;99.90;;;;;;5051365;28;21140;-71
2023/11/20 12:10:50;;;;;;;7.50;1.20;;;14.60;99.90;;;;;;5051793;28;20446;-71
2023/11/20 12:13:19;;;;;;;11.90;1.23;;;14.70;99.90;;;;;;5051665;28;20513;-71
2023/11/20 12:15:49;;;;;;;7.47;0.80;;;14.60;99.90;;;;;;5051487;28;21217;-74
2023/11/20 12:18:21;;;;;;;7.63;1.37;;;14.60;99.90;;;;;;5052095;28;20464;-71
2023/11/20 12:21:08;;;;;;;10.03;1.17;;;14.30;99.90;;;;;;5051604;28;20960;-73
2023/11/20 12:23:37;;;;;;;6.50;0.83;;;13.90;99.90;;;;;;5051319;28;20443;-72
2023/11/20 12:26:07;;;;;;;8.73;1.13;;;13.70;99.90;;;;;;5051132;28;20440;-73
2023/11/20 12:28:36;;;;;;;6.40;0.60;;;13.40;99.90;;;;;;5050895;28;21058;-71
2023/11/20 12:31:06;;;;;;;6.20;1.00;;;13.30;99.90;;;;;;5051303;28;20542;-71
2023/11/20 12:33:36;;;;;;;5.90;0.57;;;13.10;99.90;;;;;;5051068;28;20964;-72
2023/11/20 12:36:06;;;;;;;6.40;0.60;;;12.90;99.90;;;;;;5050917;28;20536;-72
2023/11/20 12:38:36;;;;;;;6.13;0.70;;;12.70;99.90;;;;;;5051162;28;20927;-73
2023/11/20 12:41:08;;;;;;;6.63;0.83;;;12.60;99.90;;;;;;5050964;28;21185;-73
2023/11/20 12:43:37;;;;;;;6.80;0.80;;;12.70;99.90;;;;;;5050962;28;20448;-69
2023/11/20 12:46:05;;;;;;;7.53;0.40;;;12.70;99.90;;;;;;5050651;28;20531;-68
2023/11/20 12:48:36;;;;;;;9.60;1.00;;;12.70;99.90;;;;;;5051035;28;20470;-68
2023/11/20 12:51:07;;;;;;;6.77;1.70;;;12.80;99.90;;;;;;5051129;28;20451;-68